createdAt,value
2022-09-20T00:00:03.527Z,1999.90
2022-09-20T00:01:03.467Z,1999.90
2022-09-20T00:02:03.462Z,1999.90
2022-09-20T00:03:03.421Z,1999.90
2022-09-20T00:04:03.493Z,1999.90
2022-09-20T00:05:03.515Z,1999.90
2022-09-20T00:06:03.515Z,1999.90
2022-09-20T00:07:03.392Z,1999.90
2022-09-20T00:08:03.474Z,1999.90
2022-09-20T00:09:03.494Z,1999.90
2022-09-20T00:10:03.376Z,1999.90
2022-09-20T00:11:03.416Z,1999.90
2022-09-20T00:12:03.376Z,1999.90
2022-09-20T00:13:03.457Z,1999.90
2022-09-20T00:14:03.355Z,1999.90
2022-09-20T00:15:03.581Z,1999.90
2022-09-20T00:16:03.352Z,1999.90
2022-09-20T00:17:03.396Z,1999.90
2022-09-20T00:18:03.307Z,1999.90
2022-09-20T00:19:03.260Z,1999.90
2022-09-20T00:20:03.245Z,1999.90
2022-09-20T00:21:03.300Z,1999.90
2022-09-20T00:22:03.254Z,1999.90
2022-09-20T00:23:03.255Z,1999.90
2022-09-20T00:24:03.264Z,1999.90
2022-09-20T00:25:03.349Z,1999.90
2022-09-20T00:26:03.280Z,1999.90
2022-09-20T00:27:03.383Z,1999.90
2022-09-20T00:28:03.272Z,1999.90
2022-09-20T00:29:03.311Z,1999.90
2022-09-20T00:30:03.274Z,1999.90
2022-09-20T00:31:03.277Z,1999.90
2022-09-20T00:32:03.370Z,1999.90
2022-09-20T00:33:03.290Z,1999.90
2022-09-20T00:34:03.263Z,1999.90
2022-09-20T00:35:03.227Z,1999.90
2022-09-20T00:36:03.232Z,1999.90
2022-09-20T00:37:03.303Z,1999.90
2022-09-20T00:38:03.190Z,1999.90
2022-09-20T00:39:03.101Z,1999.90
2022-09-20T00:40:03.217Z,1999.90
2022-09-20T00:41:03.174Z,1999.90
2022-09-20T00:42:03.253Z,1999.90
2022-09-20T00:43:03.060Z,1999.90
2022-09-20T00:44:04.221Z,1999.90
2022-09-20T00:45:03.156Z,1999.90
2022-09-20T00:46:03.200Z,1999.90
2022-09-20T00:47:03.165Z,1999.90
2022-09-20T00:48:03.143Z,1999.90
2022-09-20T00:49:03.169Z,1999.90
2022-09-20T00:50:03.168Z,1999.90
2022-09-20T00:51:03.122Z,1999.90
2022-09-20T00:52:03.150Z,1999.90
2022-09-20T00:53:03.055Z,1999.90
2022-09-20T00:54:02.983Z,1999.90
2022-09-20T00:55:03.390Z,1999.90
2022-09-20T00:56:02.985Z,1999.90
2022-09-20T00:57:02.980Z,1999.90
2022-09-20T00:58:02.996Z,1999.90
2022-09-20T00:59:02.943Z,1999.90
2022-09-20T01:00:02.983Z,1999.90
2022-09-20T01:01:03.077Z,1999.90
2022-09-20T01:02:03.004Z,1999.90
2022-09-20T01:03:02.957Z,1999.90
2022-09-20T01:04:03.035Z,1999.90
2022-09-20T01:05:03.066Z,1999.90
2022-09-20T01:06:02.990Z,1999.90
2022-09-20T01:07:02.990Z,1999.90
2022-09-20T01:08:02.966Z,1999.90
2022-09-20T01:09:02.970Z,1999.90
2022-09-20T01:10:02.968Z,1999.90
2022-09-20T01:11:03.041Z,1999.90
2022-09-20T01:12:02.974Z,1999.90
2022-09-20T01:13:03.020Z,1999.90
2022-09-20T01:14:02.930Z,1999.90
2022-09-20T01:15:02.901Z,1999.90
2022-09-20T01:16:02.929Z,1999.90
2022-09-20T01:17:02.852Z,1999.90
2022-09-20T01:18:02.922Z,1999.90
2022-09-20T01:19:02.850Z,1999.90
2022-09-20T01:20:02.925Z,1999.90
2022-09-20T01:21:02.889Z,1999.90
2022-09-20T01:22:02.944Z,1999.90
2022-09-20T01:23:02.856Z,1999.90
2022-09-20T01:24:02.889Z,1999.90
2022-09-20T01:25:02.891Z,1999.90
2022-09-20T01:26:02.887Z,1999.90
2022-09-20T01:27:02.902Z,1999.90
2022-09-20T01:28:02.833Z,1999.90
2022-09-20T01:29:02.897Z,1999.90
2022-09-20T01:30:02.820Z,1999.90
2022-09-20T01:31:02.813Z,1999.90
2022-09-20T01:32:02.851Z,1999.90
2022-09-20T01:33:02.787Z,1999.90
2022-09-20T01:34:02.701Z,1999.90
2022-09-20T01:35:02.824Z,1999.90
2022-09-20T01:36:02.879Z,1999.90
2022-09-20T01:37:02.819Z,1999.90
2022-09-20T01:38:02.878Z,1999.90
2022-09-20T01:39:02.762Z,1999.90
2022-09-20T01:40:02.802Z,1999.90
2022-09-20T01:41:02.853Z,1999.90
2022-09-20T01:42:02.727Z,1999.90
2022-09-20T01:43:02.712Z,1999.90
2022-09-20T01:44:02.757Z,1999.90
2022-09-20T01:45:02.726Z,1999.90
2022-09-20T01:46:02.773Z,1999.90
2022-09-20T01:47:02.701Z,1999.90
2022-09-20T01:48:02.617Z,1999.90
2022-09-20T01:49:02.685Z,1999.90
2022-09-20T01:50:02.715Z,1999.90
2022-09-20T01:51:02.582Z,1999.90
2022-09-20T01:52:03.273Z,1999.90
2022-09-20T01:53:02.659Z,1999.90
2022-09-20T01:54:02.771Z,1999.90
2022-09-20T01:55:02.663Z,1999.90
2022-09-20T01:56:02.671Z,1999.90
2022-09-20T01:57:02.684Z,1999.90
2022-09-20T01:58:02.632Z,1999.90
2022-09-20T01:59:22.689Z,1999.90
2022-09-20T02:00:04.622Z,1999.90
2022-09-20T02:01:02.646Z,1999.90
2022-09-20T02:02:02.664Z,1999.90
2022-09-20T02:03:02.677Z,1999.90
2022-09-20T02:04:02.596Z,1999.90
2022-09-20T02:05:02.583Z,1999.90
2022-09-20T02:06:02.468Z,1999.90
2022-09-20T02:07:02.579Z,1999.90
2022-09-20T02:08:02.492Z,1999.90
2022-09-20T02:09:02.522Z,1999.90
2022-09-20T02:10:02.533Z,1999.90
2022-09-20T02:11:02.607Z,1999.90
2022-09-20T02:12:02.574Z,1999.90
2022-09-20T02:13:02.561Z,1999.90
2022-09-20T02:14:02.539Z,1999.90
2022-09-20T02:15:02.507Z,1999.90
2022-09-20T02:16:02.654Z,1999.90
2022-09-20T02:17:02.606Z,1999.90
2022-09-20T02:18:02.531Z,1999.90
2022-09-20T02:19:02.422Z,1999.90
2022-09-20T02:20:02.382Z,1999.90
2022-09-20T02:21:02.462Z,1999.90
2022-09-20T02:22:02.619Z,1999.90
2022-09-20T02:23:02.524Z,1999.90
2022-09-20T02:24:02.451Z,1999.90
2022-09-20T02:25:02.439Z,1999.90
2022-09-20T02:26:02.452Z,1999.90
2022-09-20T02:27:02.504Z,1999.90
2022-09-20T02:28:02.471Z,1999.90
2022-09-20T02:29:02.448Z,1999.90
2022-09-20T02:30:02.483Z,1999.90
2022-09-20T02:31:02.383Z,1999.90
2022-09-20T02:32:02.450Z,1999.90
2022-09-20T02:33:02.552Z,1999.90
2022-09-20T02:34:02.297Z,1999.90
2022-09-20T02:35:02.296Z,1999.90
2022-09-20T02:36:02.401Z,1999.90
2022-09-20T02:37:02.287Z,1999.90
2022-09-20T02:38:02.385Z,1999.90
2022-09-20T02:39:02.362Z,1999.90
2022-09-20T02:40:02.412Z,1999.90
2022-09-20T02:41:02.338Z,1999.90
2022-09-20T02:42:02.301Z,1999.90
2022-09-20T02:43:03.397Z,1999.90
2022-09-20T02:44:02.314Z,1999.90
2022-09-20T02:45:02.392Z,1999.90
2022-09-20T02:46:02.351Z,1999.90
2022-09-20T02:47:02.372Z,1999.90
2022-09-20T02:48:02.332Z,1999.90
2022-09-20T02:49:02.322Z,1999.90
2022-09-20T02:50:02.265Z,1999.90
2022-09-20T02:51:02.182Z,1999.90
2022-09-20T02:52:02.182Z,1999.90
2022-09-20T02:53:02.243Z,1999.90
2022-09-20T02:54:02.225Z,1999.90
2022-09-20T02:55:03.459Z,1999.90
2022-09-20T02:56:02.235Z,1999.90
2022-09-20T02:57:02.281Z,1999.90
2022-09-20T02:58:02.224Z,1999.90
2022-09-20T02:59:02.249Z,1999.90
2022-09-20T03:00:02.247Z,1999.90
2022-09-20T03:01:02.206Z,1999.90
2022-09-20T03:02:02.262Z,1999.90
2022-09-20T03:03:02.170Z,1999.90
2022-09-20T03:04:02.148Z,1999.90
2022-09-20T03:05:02.581Z,1999.90
2022-09-20T03:06:03.184Z,1999.90
2022-09-20T03:07:02.135Z,1999.90
2022-09-20T03:08:03.194Z,1999.90
2022-09-20T03:09:03.088Z,1999.90
2022-09-20T03:10:02.076Z,1999.90
2022-09-20T03:11:02.111Z,1999.90
2022-09-20T03:12:02.077Z,1999.90
2022-09-20T03:13:02.049Z,1999.90
2022-09-20T03:14:02.016Z,1999.90
2022-09-20T03:15:02.029Z,1999.90
2022-09-20T03:16:02.050Z,1999.90
2022-09-20T03:17:02.193Z,1999.90
2022-09-20T03:18:02.088Z,1999.90
2022-09-20T03:19:02.071Z,1999.90
2022-09-20T03:20:02.072Z,1999.90
2022-09-20T03:21:02.127Z,1999.90
2022-09-20T03:22:02.078Z,1999.90
2022-09-20T03:23:02.066Z,1999.90
2022-09-20T03:24:02.010Z,1999.90
2022-09-20T03:25:02.065Z,1999.90
2022-09-20T03:26:02.064Z,1999.90
2022-09-20T03:27:02.220Z,1999.90
2022-09-20T03:28:01.910Z,1999.90
2022-09-20T03:29:02.913Z,1999.90
2022-09-20T03:30:01.925Z,1999.90
2022-09-20T03:31:02.069Z,1999.90
2022-09-20T03:32:02.062Z,1999.90
2022-09-20T03:33:02.025Z,1999.90
2022-09-20T03:34:01.940Z,1999.90
2022-09-20T03:35:01.972Z,1999.90
2022-09-20T03:36:01.935Z,1999.90
2022-09-20T03:37:01.936Z,1999.90
2022-09-20T03:38:01.967Z,1999.90
2022-09-20T03:39:01.939Z,1999.90
2022-09-20T03:40:01.995Z,1999.90
2022-09-20T03:41:01.895Z,1999.90
2022-09-20T03:42:01.900Z,1999.90
2022-09-20T03:43:01.919Z,1999.90
2022-09-20T03:44:01.873Z,1999.90
2022-09-20T03:45:01.842Z,1999.90
2022-09-20T03:46:01.823Z,1999.90
2022-09-20T03:47:01.884Z,1999.90
2022-09-20T03:48:01.905Z,1999.90
2022-09-20T03:49:01.914Z,1999.90
2022-09-20T03:50:01.950Z,1999.90
2022-09-20T03:51:01.858Z,1999.90
2022-09-20T03:52:02.821Z,1999.90
2022-09-20T03:53:01.844Z,1999.90
2022-09-20T03:54:01.786Z,1999.90
2022-09-20T03:55:01.848Z,1999.90
2022-09-20T03:56:01.847Z,1999.90
2022-09-20T03:57:01.809Z,1999.90
2022-09-20T03:58:04.732Z,1999.90
2022-09-20T03:59:02.795Z,1999.90
2022-09-20T04:00:01.721Z,1999.90
2022-09-20T04:01:01.849Z,1999.90
2022-09-20T04:02:01.725Z,1999.90
2022-09-20T04:03:01.724Z,1999.90
2022-09-20T04:04:01.687Z,1999.90
2022-09-20T04:05:01.785Z,1999.90
2022-09-20T04:06:01.728Z,1999.90
2022-09-20T04:07:01.785Z,1999.90
2022-09-20T04:08:01.737Z,1999.90
2022-09-20T04:09:01.718Z,1999.90
2022-09-20T04:10:01.963Z,1999.90
2022-09-20T04:11:01.696Z,1999.90
2022-09-20T04:12:01.721Z,1999.90
2022-09-20T04:13:01.751Z,1999.90
2022-09-20T04:14:01.690Z,1999.90
2022-09-20T04:15:01.606Z,1999.90
2022-09-20T04:16:01.636Z,1999.90
2022-09-20T04:17:01.686Z,1999.90
2022-09-20T04:18:01.578Z,1999.90
2022-09-20T04:19:01.751Z,1999.90
2022-09-20T04:20:01.563Z,1999.90
2022-09-20T04:21:01.601Z,1999.90
2022-09-20T04:22:02.563Z,1999.90
2022-09-20T04:23:01.568Z,1999.90
2022-09-20T04:24:01.634Z,1999.90
2022-09-20T04:25:01.608Z,1999.90
2022-09-20T04:26:01.665Z,1999.90
2022-09-20T04:27:01.585Z,1999.90
2022-09-20T04:28:01.601Z,1999.90
2022-09-20T04:29:01.578Z,1999.90
2022-09-20T04:30:01.596Z,1999.90
2022-09-20T04:31:01.808Z,1999.90
2022-09-20T04:32:01.631Z,1999.90
2022-09-20T04:33:01.576Z,1999.90
2022-09-20T04:34:01.572Z,1999.90
2022-09-20T04:35:01.611Z,1999.90
2022-09-20T04:36:01.474Z,1999.90
2022-09-20T04:37:01.454Z,1999.90
2022-09-20T04:38:01.562Z,1999.90
2022-09-20T04:39:01.544Z,1999.90
2022-09-20T04:40:01.591Z,1999.90
2022-09-20T04:41:01.483Z,1999.90
2022-09-20T04:42:01.606Z,1999.90
2022-09-20T04:43:01.501Z,1999.90
2022-09-20T04:44:01.459Z,1999.90
2022-09-20T04:45:01.472Z,1999.90
2022-09-20T04:46:01.530Z,1999.90
2022-09-20T04:47:01.442Z,1999.90
2022-09-20T04:48:01.566Z,1999.90
2022-09-20T04:49:01.441Z,1999.90
2022-09-20T04:50:01.446Z,1999.90
2022-09-20T04:51:01.444Z,1999.90
2022-09-20T04:52:01.362Z,1999.90
2022-09-20T04:53:01.344Z,1999.90
2022-09-20T04:54:01.312Z,1999.90
2022-09-20T04:55:01.377Z,1999.90
2022-09-20T04:56:01.339Z,1999.90
2022-09-20T04:57:01.371Z,1999.90
2022-09-20T04:58:01.334Z,1999.90
2022-09-20T04:59:01.349Z,1999.90
2022-09-20T05:00:01.316Z,1999.90
2022-09-20T05:01:01.472Z,1999.90
2022-09-20T05:02:01.380Z,1999.90
2022-09-20T05:03:01.377Z,1999.90
2022-09-20T05:04:01.366Z,1999.90
2022-09-20T05:05:01.399Z,1999.90
2022-09-20T05:06:01.323Z,1999.90
2022-09-20T05:07:01.342Z,1999.90
2022-09-20T05:08:01.326Z,1999.90
2022-09-20T05:09:01.540Z,1999.90
2022-09-20T05:10:01.360Z,1999.90
2022-09-20T05:11:01.281Z,1999.90
2022-09-20T05:12:01.885Z,1999.90
2022-09-20T05:13:01.239Z,1999.90
2022-09-20T05:14:01.282Z,1999.90
2022-09-20T05:15:01.566Z,1999.90
2022-09-20T05:16:01.193Z,1999.90
2022-09-20T05:17:01.370Z,1999.90
2022-09-20T05:18:01.267Z,1999.90
2022-09-20T05:19:01.242Z,1999.90
2022-09-20T05:20:01.246Z,1999.90
2022-09-20T05:21:01.254Z,1999.90
2022-09-20T05:22:01.239Z,1999.90
2022-09-20T05:23:01.204Z,1999.90
2022-09-20T05:24:01.239Z,1999.90
2022-09-20T05:25:01.169Z,1999.90
2022-09-20T05:26:01.275Z,1999.90
2022-09-20T05:27:01.270Z,1999.90
2022-09-20T05:28:01.120Z,1999.90
2022-09-20T05:29:01.104Z,1999.90
2022-09-20T05:30:04.994Z,1999.90
2022-09-20T05:31:02.195Z,1999.90
2022-09-20T05:32:01.263Z,1999.90
2022-09-20T05:33:01.167Z,1999.90
2022-09-20T05:34:01.199Z,1999.90
2022-09-20T05:35:01.108Z,1999.90
2022-09-20T05:36:01.130Z,1999.90
2022-09-20T05:37:01.141Z,1999.90
2022-09-20T05:38:01.100Z,1999.90
2022-09-20T05:39:03.386Z,1999.90
2022-09-20T05:40:01.207Z,1999.90
2022-09-20T05:41:01.055Z,1999.90
2022-09-20T05:42:01.101Z,1999.90
2022-09-20T05:43:01.132Z,1999.90
2022-09-20T05:44:01.013Z,1999.90
2022-09-20T05:45:00.974Z,1999.90
2022-09-20T05:46:01.122Z,1999.90
2022-09-20T05:47:00.989Z,1999.90
2022-09-20T05:48:01.030Z,1999.90
2022-09-20T05:49:01.094Z,1999.90
2022-09-20T05:50:01.031Z,1999.90
2022-09-20T05:51:03.634Z,1999.90
2022-09-20T05:52:01.963Z,1999.90
2022-09-20T05:53:00.943Z,1999.90
2022-09-20T05:54:00.889Z,1999.90
2022-09-20T05:55:00.995Z,1999.90
2022-09-20T05:56:00.992Z,1999.90
2022-09-20T05:57:00.951Z,1999.90
2022-09-20T05:58:01.064Z,1999.90
2022-09-20T05:59:01.032Z,1999.90
2022-09-20T06:00:00.989Z,1999.90
2022-09-20T06:01:01.005Z,1999.90
2022-09-20T06:02:01.001Z,1999.90
2022-09-20T06:03:00.989Z,1999.90
2022-09-20T06:04:00.961Z,1999.90
2022-09-20T06:05:00.894Z,1999.90
2022-09-20T06:06:00.891Z,1999.90
2022-09-20T06:07:00.827Z,1999.90
2022-09-20T06:08:00.818Z,1999.90
2022-09-20T06:09:00.918Z,1999.90
2022-09-20T06:10:00.915Z,1999.90
2022-09-20T06:11:00.869Z,1999.90
2022-09-20T06:12:00.922Z,1999.90
2022-09-20T06:13:00.885Z,1999.90
2022-09-20T06:14:00.906Z,1999.90
2022-09-20T06:15:00.856Z,1999.90
2022-09-20T06:16:00.853Z,1999.90
2022-09-20T06:17:00.821Z,1999.90
2022-09-20T06:18:00.806Z,1999.90
2022-09-20T06:19:00.835Z,1999.90
2022-09-20T06:20:01.030Z,1999.90
2022-09-20T06:21:00.791Z,1999.90
2022-09-20T06:22:03.626Z,1999.90
2022-09-20T06:23:01.805Z,1999.90
2022-09-20T06:24:00.692Z,1999.90
2022-09-20T06:25:00.675Z,1999.90
2022-09-20T06:26:00.782Z,1999.90
2022-09-20T06:27:00.737Z,1999.90
2022-09-20T06:28:00.774Z,1999.90
2022-09-20T06:29:00.758Z,1999.90
2022-09-20T06:30:00.722Z,1999.90
2022-09-20T06:31:00.848Z,1999.90
2022-09-20T06:32:00.724Z,1999.90
2022-09-20T06:33:00.732Z,1999.90
2022-09-20T06:34:00.711Z,1999.90
2022-09-20T06:35:00.763Z,1999.90
2022-09-20T06:36:00.711Z,1999.90
2022-09-20T06:37:00.837Z,1999.90
2022-09-20T06:38:00.646Z,1999.90
2022-09-20T06:39:00.578Z,1999.90
2022-09-20T06:40:00.700Z,1999.90
2022-09-20T06:41:00.619Z,1999.90
2022-09-20T06:42:00.618Z,1999.90
2022-09-20T06:43:00.578Z,1999.90
2022-09-20T06:44:00.792Z,1999.90
2022-09-20T06:45:00.725Z,1999.90
2022-09-20T06:46:00.805Z,1999.90
2022-09-20T06:47:00.863Z,1999.90
2022-09-20T06:48:00.797Z,1999.90
2022-09-20T06:49:00.693Z,1999.90
2022-09-20T06:50:00.778Z,1999.90
2022-09-20T06:51:00.730Z,1999.90
2022-09-20T06:52:00.966Z,1999.90
2022-09-20T06:53:00.602Z,1999.90
2022-09-20T06:54:00.533Z,1999.90
2022-09-20T06:55:00.527Z,1999.90
2022-09-20T06:56:00.607Z,1999.90
2022-09-20T06:57:00.559Z,1999.90
2022-09-20T06:58:00.679Z,1999.90
2022-09-20T06:59:00.529Z,1999.90
2022-09-20T07:00:00.649Z,1999.90
2022-09-20T07:01:00.534Z,1999.90
2022-09-20T07:02:00.486Z,1999.90
2022-09-20T07:03:00.573Z,1999.90
2022-09-20T07:04:00.536Z,1999.90
2022-09-20T07:05:00.513Z,1999.90
2022-09-20T07:06:00.463Z,1999.90
2022-09-20T07:07:00.499Z,1999.90
2022-09-20T07:08:00.464Z,1999.90
2022-09-20T07:09:00.597Z,1999.90
2022-09-20T07:10:00.480Z,1999.90
2022-09-20T07:11:00.479Z,1999.90
2022-09-20T07:12:00.464Z,1999.90
2022-09-20T07:13:00.661Z,1999.90
2022-09-20T07:14:00.652Z,1999.90
2022-09-20T07:15:00.472Z,1999.90
2022-09-20T07:16:00.412Z,1999.90
2022-09-20T07:17:00.410Z,1999.90
2022-09-20T07:18:00.420Z,1999.90
2022-09-20T07:19:00.432Z,1999.90
2022-09-20T07:20:00.439Z,1999.90
2022-09-20T07:21:00.321Z,1999.90
2022-09-20T07:22:00.315Z,1999.90
2022-09-20T07:23:00.382Z,1999.90
2022-09-20T07:24:00.396Z,1999.90
2022-09-20T07:25:00.586Z,1999.90
2022-09-20T07:26:00.344Z,1999.90
2022-09-20T07:27:00.355Z,1999.90
2022-09-20T07:28:00.345Z,1999.90
2022-09-20T07:29:00.329Z,1999.90
2022-09-20T07:30:00.401Z,1999.90
2022-09-20T07:31:00.336Z,1999.90
2022-09-20T07:32:00.528Z,1999.90
2022-09-20T07:33:00.428Z,1999.90
2022-09-20T07:34:00.307Z,1999.90
2022-09-20T07:35:00.422Z,1999.90
2022-09-20T07:36:00.582Z,1999.90
2022-09-20T07:37:00.423Z,1999.90
2022-09-20T07:38:00.300Z,1999.90
2022-09-20T07:39:01.287Z,1999.90
2022-09-20T07:40:00.243Z,1999.90
2022-09-20T07:41:00.306Z,1999.90
2022-09-20T07:42:00.340Z,1999.90
2022-09-20T07:43:00.275Z,1999.90
2022-09-20T07:44:00.264Z,1999.90
2022-09-20T07:45:00.242Z,1999.90
2022-09-20T07:46:00.296Z,1999.90
2022-09-20T07:47:00.239Z,1999.90
2022-09-20T07:48:00.240Z,1999.90
2022-09-20T07:49:00.242Z,1999.90
2022-09-20T07:50:00.217Z,1999.90
2022-09-20T07:51:00.289Z,1999.90
2022-09-20T07:52:00.129Z,1999.90
2022-09-20T07:53:00.360Z,1999.90
2022-09-20T07:54:00.273Z,1999.90
2022-09-20T07:55:00.169Z,1999.90
2022-09-20T07:56:00.289Z,1999.90
2022-09-20T07:57:00.328Z,1999.90
2022-09-20T07:58:00.197Z,1999.90
2022-09-20T07:59:00.405Z,1999.90
2022-09-20T08:00:00.227Z,1999.90
2022-09-20T08:01:00.281Z,1999.90
2022-09-20T08:02:00.273Z,1999.90
2022-09-20T08:03:00.202Z,1999.90
2022-09-20T08:05:44.465Z,1999.90
2022-09-20T08:06:45.757Z,1999.90
2022-09-20T08:07:45.797Z,1999.90
2022-09-20T08:08:45.662Z,1999.90
2022-09-20T08:09:45.829Z,1999.90
2022-09-20T08:10:45.737Z,1999.90
2022-09-20T08:11:45.660Z,1999.90
2022-09-20T08:14:47.546Z,1999.90
2022-09-20T08:15:45.671Z,1999.90
2022-09-20T08:16:45.762Z,1999.90
2022-09-20T08:17:45.616Z,1999.90
2022-09-20T08:18:45.716Z,1999.90
2022-09-20T08:19:45.591Z,1999.90
2022-09-20T08:20:45.502Z,1999.90
2022-09-20T08:21:45.436Z,1999.90
2022-09-20T08:22:56.430Z,1999.90
2022-09-20T08:23:46.452Z,1999.90
2022-09-20T08:24:45.335Z,1999.90
2022-09-20T08:25:45.364Z,1999.90
2022-09-20T08:26:45.381Z,1999.90
2022-09-20T08:27:45.800Z,1999.90
2022-09-20T08:28:45.430Z,1999.90
2022-09-20T08:29:45.423Z,1999.90
2022-09-20T08:30:45.405Z,1999.90
2022-09-20T08:31:45.510Z,1999.90
2022-09-20T08:32:45.425Z,1999.90
2022-09-20T08:33:45.374Z,1999.90
2022-09-20T08:34:49.235Z,1999.90
2022-09-20T08:35:46.355Z,1999.90
2022-09-20T08:36:45.364Z,1999.90
2022-09-20T08:37:45.267Z,1999.90
2022-09-20T08:40:02.676Z,1999.90
2022-09-20T08:40:47.321Z,1999.90
2022-09-20T08:41:45.433Z,1999.90
2022-09-20T08:42:45.356Z,1999.90
2022-09-20T08:43:45.769Z,1999.90
2022-09-20T08:44:46.319Z,1999.90
2022-09-20T08:45:45.332Z,1999.90
2022-09-20T08:46:45.405Z,1999.90
2022-09-20T08:47:45.519Z,1999.90
2022-09-20T08:48:45.449Z,1999.90
2022-09-20T08:49:46.667Z,1999.90
2022-09-20T08:50:46.472Z,1999.90
2022-09-20T08:51:48.661Z,1999.90
2022-09-20T08:52:46.360Z,1999.90
2022-09-20T08:53:49.104Z,1999.90
2022-09-20T08:54:46.384Z,1999.90
2022-09-20T08:55:45.329Z,1999.90
2022-09-20T08:56:45.350Z,1999.90
2022-09-20T08:57:45.284Z,1999.90
2022-09-20T08:58:45.342Z,1999.90
2022-09-20T08:59:45.387Z,1999.90
2022-09-20T09:00:45.455Z,1999.90
2022-09-20T09:01:45.221Z,1999.90
2022-09-20T09:02:45.217Z,1999.90
2022-09-20T09:03:45.214Z,1999.90
2022-09-20T09:04:45.171Z,1999.90
2022-09-20T09:05:45.213Z,1999.90
2022-09-20T09:06:45.154Z,1999.90
2022-09-20T09:07:45.170Z,1999.90
2022-09-20T09:08:45.168Z,1999.90
2022-09-20T09:09:45.088Z,1999.90
2022-09-20T09:10:45.658Z,1999.90
2022-09-20T09:11:46.072Z,1999.90
2022-09-20T09:12:48.710Z,1999.90
2022-09-20T09:13:46.108Z,1999.90
2022-09-20T09:14:45.363Z,1999.90
2022-09-20T09:15:45.258Z,1999.90
2022-09-20T09:16:45.291Z,1999.90
2022-09-20T09:17:45.193Z,1999.90
2022-09-20T09:18:45.163Z,1999.90
2022-09-20T09:19:45.235Z,1999.90
2022-09-20T09:20:45.155Z,1999.90
2022-09-20T09:21:45.113Z,1999.90
2022-09-20T09:22:45.158Z,1999.90
2022-09-20T09:23:45.136Z,1999.90
2022-09-20T09:24:45.154Z,1337.30
2022-09-20T09:25:45.135Z,1186.10
2022-09-20T09:26:45.126Z,963.60
2022-09-20T09:27:45.112Z,952.30
2022-09-20T09:28:45.043Z,989.40
2022-09-20T09:29:45.147Z,1148.70
2022-09-20T09:30:45.037Z,1056.90
2022-09-20T09:31:45.266Z,985.50
2022-09-20T09:32:45.259Z,851.30
2022-09-20T09:33:45.118Z,917.10
2022-09-20T09:34:45.073Z,977.80
2022-09-20T09:35:45.137Z,1110.70
2022-09-20T09:36:45.029Z,956.00
2022-09-20T09:37:45.114Z,998.00
2022-09-20T09:38:45.287Z,974.60
2022-09-20T09:39:44.925Z,1113.70
2022-09-20T09:40:44.933Z,1120.90
2022-09-20T09:41:44.930Z,1075.80
2022-09-20T09:42:44.888Z,1159.60
2022-09-20T09:43:44.953Z,1329.80
2022-09-20T09:44:44.890Z,1477.90
2022-09-20T09:45:44.922Z,1560.10
2022-09-20T09:46:44.889Z,1477.90
2022-09-20T09:47:44.896Z,413.80
2022-09-20T09:48:44.859Z,1999.90
2022-09-20T09:49:44.990Z,1999.90
2022-09-20T09:50:44.909Z,1999.90
2022-09-20T09:51:44.950Z,1999.90
2022-09-20T09:52:45.016Z,1999.90
2022-09-20T09:53:44.822Z,1999.90
2022-09-20T09:54:45.000Z,1999.90
2022-09-20T09:55:45.051Z,1999.90
2022-09-20T09:56:44.989Z,1999.90
2022-09-20T09:57:44.882Z,1999.90
2022-09-20T09:58:44.960Z,1999.90
2022-09-20T09:59:44.901Z,1999.90
2022-09-20T10:00:45.056Z,1999.90
2022-09-20T10:01:44.821Z,1999.90
2022-09-20T10:02:45.010Z,1999.90
2022-09-20T10:03:44.875Z,1999.90
2022-09-20T10:04:44.842Z,1999.90
2022-09-20T10:05:44.938Z,1999.90
2022-09-20T10:06:46.592Z,1999.90
2022-09-20T10:07:44.773Z,1325.10
2022-09-20T10:08:44.779Z,1282.40
2022-09-20T10:09:44.850Z,1358.00
2022-09-20T10:10:44.794Z,1333.50
2022-09-20T10:11:44.853Z,1999.90
2022-09-20T10:12:44.809Z,1999.90
2022-09-20T10:13:44.831Z,1309.30
2022-09-20T10:14:44.758Z,1198.40
2022-09-20T10:15:44.786Z,1412.10
2022-09-20T10:16:44.896Z,1023.80
2022-09-20T10:17:44.669Z,959.30
2022-09-20T10:18:44.650Z,1023.60
2022-09-20T10:19:44.661Z,1009.80
2022-09-20T10:20:44.622Z,1035.90
2022-09-20T10:21:45.103Z,1040.70
2022-09-20T10:23:00.120Z,1072.30
2022-09-20T10:24:02.512Z,1279.00
2022-09-20T10:24:51.219Z,1174.90
2022-09-20T10:25:46.594Z,984.00
2022-09-20T10:26:44.596Z,1067.50
2022-09-20T10:27:44.636Z,1272.90
2022-09-20T10:28:44.562Z,1076.70
2022-09-20T10:29:44.572Z,1207.70
2022-09-20T10:30:44.598Z,1141.70
2022-09-20T10:31:44.558Z,1999.90
2022-09-20T10:32:44.647Z,1077.40
2022-09-20T10:33:44.653Z,1086.30
2022-09-20T10:34:44.655Z,1049.90
2022-09-20T10:35:44.622Z,1070.00
2022-09-20T10:36:44.661Z,1008.90
2022-09-20T11:53:15.768Z,1999.90
2022-09-20T11:54:16.709Z,446.70
2022-09-20T11:55:16.612Z,610.20
2022-09-20T11:56:16.611Z,655.80
2022-09-20T11:57:16.675Z,542.50
2022-09-20T11:58:17.740Z,633.60
2022-09-20T11:59:16.601Z,699.60
2022-09-20T12:00:16.738Z,735.50
2022-09-20T12:01:16.672Z,702.60
2022-09-20T12:02:16.613Z,785.20
2022-09-20T12:03:16.772Z,1014.10
2022-09-20T12:04:33.649Z,1092.50
2022-09-20T12:05:18.519Z,1104.80
2022-09-20T12:06:16.604Z,1067.10
2022-09-20T12:07:18.147Z,1043.00
2022-09-20T12:08:17.609Z,1141.20
2022-09-20T12:09:16.685Z,1042.20
2022-09-20T12:10:16.605Z,1045.70
2022-09-20T12:11:16.641Z,1034.90
2022-09-20T12:12:16.586Z,1059.30
2022-09-20T12:13:16.667Z,1007.00
2022-09-20T12:14:16.530Z,1035.00
2022-09-20T12:15:16.464Z,1081.50
2022-09-20T12:16:16.449Z,1055.90
2022-09-20T12:17:16.429Z,1062.00
2022-09-20T12:18:16.410Z,1095.90
2022-09-20T12:19:16.408Z,1124.40
2022-09-20T12:20:19.373Z,1100.10
2022-09-20T12:21:17.421Z,1112.30
2022-09-20T12:22:16.418Z,1087.00
2022-09-20T12:23:16.488Z,1052.30
2022-09-20T12:24:16.513Z,1056.40
2022-09-20T12:25:16.476Z,1061.70
2022-09-20T12:26:16.505Z,1070.10
2022-09-20T12:27:16.506Z,1083.80
2022-09-20T12:28:16.521Z,1041.70
2022-09-20T12:29:16.405Z,1205.00
2022-09-20T12:30:16.592Z,1125.60
2022-09-20T12:31:16.469Z,1124.10
2022-09-20T12:32:16.498Z,1035.70
2022-09-20T12:33:16.389Z,987.60
2022-09-20T12:34:16.501Z,917.20
2022-09-20T12:35:16.465Z,759.80
2022-09-20T12:36:16.329Z,811.30
2022-09-20T12:37:16.382Z,669.00
2022-09-20T12:38:16.310Z,473.20
2022-09-20T12:39:21.677Z,409.90
2022-09-20T12:40:18.365Z,323.80
2022-09-20T12:41:16.171Z,391.00
2022-09-20T12:42:19.019Z,354.70
2022-09-20T12:43:16.223Z,285.80
2022-09-20T12:44:16.264Z,278.20
2022-09-20T12:45:16.225Z,208.30
2022-09-20T12:46:16.324Z,168.40
2022-09-20T12:47:16.174Z,250.00
2022-09-20T12:48:16.190Z,190.80
2022-09-20T12:49:16.287Z,178.80
2022-09-20T12:50:16.187Z,200.70
2022-09-20T12:51:16.177Z,174.00
2022-09-20T12:52:16.142Z,231.10
2022-09-20T12:53:16.102Z,137.40
2022-09-20T12:54:16.063Z,231.00
2022-09-20T12:55:16.104Z,139.50
2022-09-20T12:56:16.135Z,182.60
2022-09-20T12:57:16.230Z,190.20
2022-09-20T12:58:16.038Z,84.00
2022-09-20T12:59:15.982Z,59.70
2022-09-20T13:00:16.074Z,54.40
2022-09-20T13:01:16.045Z,60.00
2022-09-20T13:02:16.135Z,46.60
2022-09-20T13:03:16.004Z,79.40
2022-09-20T13:04:15.950Z,109.90
2022-09-20T13:05:15.970Z,92.60
2022-09-20T13:06:16.052Z,125.40
2022-09-20T13:07:16.040Z,157.20
2022-09-20T13:08:16.119Z,167.70
2022-09-20T13:09:16.031Z,151.70
2022-09-20T13:10:16.063Z,177.30
2022-09-20T13:11:16.000Z,184.60
2022-09-20T13:12:15.975Z,175.00
2022-09-20T13:13:16.083Z,179.70
2022-09-20T13:14:15.972Z,196.00
2022-09-20T13:15:15.975Z,210.10
2022-09-20T13:16:15.931Z,214.80
2022-09-20T13:17:15.892Z,231.30
2022-09-20T13:18:15.952Z,263.00
2022-09-20T13:19:15.923Z,287.10
2022-09-20T13:20:15.891Z,320.80
2022-09-20T13:21:16.004Z,313.30
2022-09-20T13:22:15.868Z,353.10
2022-09-20T13:23:15.836Z,389.60
2022-09-20T13:24:16.098Z,361.40
2022-09-20T13:25:16.002Z,311.00
2022-09-20T13:26:16.000Z,318.60
2022-09-20T13:27:19.335Z,276.00
2022-09-20T13:28:20.956Z,258.10